sensor_id;sensor_type;location;lat;lon;timestamp;P1;durP1;ratioP1;P2;durP2;ratioP2
23394;SDS011;11870;53.084;18.206;2023-08-17T00:02:22;3.92;;;1.90;;
23394;SDS011;11870;53.084;18.206;2023-08-17T00:04:48;4.32;;;1.90;;
23394;SDS011;11870;53.084;18.206;2023-08-17T00:07:14;3.63;;;1.88;;
23394;SDS011;11870;53.084;18.206;2023-08-17T00:09:41;5.88;;;1.77;;
23394;SDS011;11870;53.084;18.206;2023-08-17T00:12:08;2.78;;;1.80;;
23394;SDS011;11870;53.084;18.206;2023-08-17T00:14:34;4.75;;;1.90;;
23394;SDS011;11870;53.084;18.206;2023-08-17T00:17:00;6.05;;;1.60;;
23394;SDS011;11870;53.084;18.206;2023-08-17T00:19:28;2.63;;;1.65;;
23394;SDS011;11870;53.084;18.206;2023-08-17T00:21:54;4.63;;;2.00;;
23394;SDS011;11870;53.084;18.206;2023-08-17T00:24:21;5.18;;;1.98;;
23394;SDS011;11870;53.084;18.206;2023-08-17T00:26:47;2.28;;;1.40;;
23394;SDS011;11870;53.084;18.206;2023-08-17T00:29:14;5.75;;;1.80;;
23394;SDS011;11870;53.084;18.206;2023-08-17T00:31:40;4.63;;;1.75;;
23394;SDS011;11870;53.084;18.206;2023-08-17T00:34:07;5.88;;;2.08;;
23394;SDS011;11870;53.084;18.206;2023-08-17T00:36:33;2.80;;;1.73;;
23394;SDS011;11870;53.084;18.206;2023-08-17T00:39:00;6.55;;;1.55;;
23394;SDS011;11870;53.084;18.206;2023-08-17T00:41:26;3.80;;;1.75;;
23394;SDS011;11870;53.084;18.206;2023-08-17T00:43:54;3.75;;;1.60;;
23394;SDS011;11870;53.084;18.206;2023-08-17T00:46:20;2.83;;;1.60;;
23394;SDS011;11870;53.084;18.206;2023-08-17T00:48:48;1.83;;;1.30;;
23394;SDS011;11870;53.084;18.206;2023-08-17T00:51:14;4.80;;;1.77;;
23394;SDS011;11870;53.084;18.206;2023-08-17T00:53:41;7.60;;;2.33;;
23394;SDS011;11870;53.084;18.206;2023-08-17T00:56:08;2.08;;;1.48;;
23394;SDS011;11870;53.084;18.206;2023-08-17T00:58:34;3.40;;;1.27;;
23394;SDS011;11870;53.084;18.206;2023-08-17T01:01:00;4.90;;;1.65;;
23394;SDS011;11870;53.084;18.206;2023-08-17T01:03:28;5.70;;;1.67;;
23394;SDS011;11870;53.084;18.206;2023-08-17T01:05:56;5.40;;;1.73;;
23394;SDS011;11870;53.084;18.206;2023-08-17T01:08:22;3.65;;;1.50;;
23394;SDS011;11870;53.084;18.206;2023-08-17T01:10:52;2.92;;;1.60;;
23394;SDS011;11870;53.084;18.206;2023-08-17T01:13:31;2.42;;;1.55;;
23394;SDS011;11870;53.084;18.206;2023-08-17T01:16:00;5.63;;;1.80;;
23394;SDS011;11870;53.084;18.206;2023-08-17T01:18:29;3.33;;;1.63;;
23394;SDS011;11870;53.084;18.206;2023-08-17T01:20:56;2.95;;;1.42;;
23394;SDS011;11870;53.084;18.206;2023-08-17T01:23:23;3.45;;;1.50;;
23394;SDS011;11870;53.084;18.206;2023-08-17T01:25:49;4.60;;;1.60;;
23394;SDS011;11870;53.084;18.206;2023-08-17T01:28:16;2.53;;;1.42;;
23394;SDS011;11870;53.084;18.206;2023-08-17T01:30:49;4.45;;;1.60;;
23394;SDS011;11870;53.084;18.206;2023-08-17T01:33:20;3.03;;;1.40;;
23394;SDS011;11870;53.084;18.206;2023-08-17T01:38:35;3.65;;;1.55;;
23394;SDS011;11870;53.084;18.206;2023-08-17T01:41:01;5.18;;;1.73;;
23394;SDS011;11870;53.084;18.206;2023-08-17T01:43:28;3.83;;;2.17;;
23394;SDS011;11870;53.084;18.206;2023-08-17T01:45:55;4.93;;;1.77;;
23394;SDS011;11870;53.084;18.206;2023-08-17T01:48:21;5.18;;;1.50;;
23394;SDS011;11870;53.084;18.206;2023-08-17T01:50:47;3.30;;;1.60;;
23394;SDS011;11870;53.084;18.206;2023-08-17T01:53:14;5.85;;;1.67;;
23394;SDS011;11870;53.084;18.206;2023-08-17T01:55:40;4.25;;;1.50;;
23394;SDS011;11870;53.084;18.206;2023-08-17T01:58:06;3.95;;;1.70;;
23394;SDS011;11870;53.084;18.206;2023-08-17T02:00:32;5.05;;;1.67;;
23394;SDS011;11870;53.084;18.206;2023-08-17T02:02:59;4.93;;;1.95;;
23394;SDS011;11870;53.084;18.206;2023-08-17T02:05:25;2.92;;;1.60;;
23394;SDS011;11870;53.084;18.206;2023-08-17T02:07:54;4.97;;;1.50;;
23394;SDS011;11870;53.084;18.206;2023-08-17T02:10:20;4.88;;;1.80;;
23394;SDS011;11870;53.084;18.206;2023-08-17T02:12:47;1.95;;;1.50;;
23394;SDS011;11870;53.084;18.206;2023-08-17T02:15:13;3.60;;;1.60;;
23394;SDS011;11870;53.084;18.206;2023-08-17T02:17:39;4.85;;;1.70;;
23394;SDS011;11870;53.084;18.206;2023-08-17T02:20:06;4.82;;;1.65;;
23394;SDS011;11870;53.084;18.206;2023-08-17T02:22:32;5.53;;;1.90;;
23394;SDS011;11870;53.084;18.206;2023-08-17T02:24:59;4.70;;;1.70;;
23394;SDS011;11870;53.084;18.206;2023-08-17T02:27:26;4.53;;;1.85;;
23394;SDS011;11870;53.084;18.206;2023-08-17T02:29:52;5.65;;;1.75;;
23394;SDS011;11870;53.084;18.206;2023-08-17T02:32:18;3.30;;;2.00;;
23394;SDS011;11870;53.084;18.206;2023-08-17T02:34:44;5.80;;;1.90;;
23394;SDS011;11870;53.084;18.206;2023-08-17T02:37:11;6.10;;;2.00;;
23394;SDS011;11870;53.084;18.206;2023-08-17T02:39:37;3.47;;;1.90;;
23394;SDS011;11870;53.084;18.206;2023-08-17T02:42:03;5.63;;;2.08;;
23394;SDS011;11870;53.084;18.206;2023-08-17T02:44:30;6.68;;;1.95;;
23394;SDS011;11870;53.084;18.206;2023-08-17T02:46:56;3.75;;;2.08;;
23394;SDS011;11870;53.084;18.206;2023-08-17T02:49:22;3.10;;;1.77;;
23394;SDS011;11870;53.084;18.206;2023-08-17T02:51:49;3.72;;;1.90;;
23394;SDS011;11870;53.084;18.206;2023-08-17T02:54:15;3.17;;;1.70;;
23394;SDS011;11870;53.084;18.206;2023-08-17T02:56:42;4.82;;;2.03;;
23394;SDS011;11870;53.084;18.206;2023-08-17T02:59:08;3.67;;;1.75;;
23394;SDS011;11870;53.084;18.206;2023-08-17T03:01:35;2.70;;;1.70;;
23394;SDS011;11870;53.084;18.206;2023-08-17T03:04:01;2.75;;;1.70;;
23394;SDS011;11870;53.084;18.206;2023-08-17T03:06:27;3.45;;;1.80;;
23394;SDS011;11870;53.084;18.206;2023-08-17T03:08:54;6.05;;;1.90;;
23394;SDS011;11870;53.084;18.206;2023-08-17T03:11:20;3.75;;;1.90;;
23394;SDS011;11870;53.084;18.206;2023-08-17T03:13:47;5.13;;;1.80;;
23394;SDS011;11870;53.084;18.206;2023-08-17T03:16:14;2.65;;;1.67;;
23394;SDS011;11870;53.084;18.206;2023-08-17T03:18:41;3.92;;;2.03;;
23394;SDS011;11870;53.084;18.206;2023-08-17T03:21:08;2.85;;;1.67;;
23394;SDS011;11870;53.084;18.206;2023-08-17T03:23:34;4.32;;;1.98;;
23394;SDS011;11870;53.084;18.206;2023-08-17T03:26:01;4.55;;;1.85;;
23394;SDS011;11870;53.084;18.206;2023-08-17T03:28:27;3.15;;;1.70;;
23394;SDS011;11870;53.084;18.206;2023-08-17T03:30:56;5.55;;;1.65;;
23394;SDS011;11870;53.084;18.206;2023-08-17T03:33:23;3.55;;;1.58;;
23394;SDS011;11870;53.084;18.206;2023-08-17T03:35:49;4.25;;;1.70;;
23394;SDS011;11870;53.084;18.206;2023-08-17T03:38:15;2.72;;;1.40;;
23394;SDS011;11870;53.084;18.206;2023-08-17T03:40:41;3.92;;;1.67;;
23394;SDS011;11870;53.084;18.206;2023-08-17T03:43:08;2.75;;;1.50;;
23394;SDS011;11870;53.084;18.206;2023-08-17T03:45:34;2.92;;;1.63;;
23394;SDS011;11870;53.084;18.206;2023-08-17T03:48:00;5.40;;;1.88;;
23394;SDS011;11870;53.084;18.206;2023-08-17T03:50:27;4.00;;;1.70;;
23394;SDS011;11870;53.084;18.206;2023-08-17T03:52:53;3.03;;;1.58;;
23394;SDS011;11870;53.084;18.206;2023-08-17T03:55:20;3.90;;;2.03;;
23394;SDS011;11870;53.084;18.206;2023-08-17T03:57:46;4.00;;;1.88;;
23394;SDS011;11870;53.084;18.206;2023-08-17T04:00:13;3.28;;;1.70;;
23394;SDS011;11870;53.084;18.206;2023-08-17T04:02:39;4.18;;;1.80;;
23394;SDS011;11870;53.084;18.206;2023-08-17T04:05:05;3.42;;;1.83;;
23394;SDS011;11870;53.084;18.206;2023-08-17T04:07:32;4.65;;;1.83;;
23394;SDS011;11870;53.084;18.206;2023-08-17T04:09:58;3.67;;;1.70;;
23394;SDS011;11870;53.084;18.206;2023-08-17T04:12:25;3.60;;;2.10;;
23394;SDS011;11870;53.084;18.206;2023-08-17T04:14:51;5.40;;;2.25;;
23394;SDS011;11870;53.084;18.206;2023-08-17T04:17:17;5.18;;;2.40;;
23394;SDS011;11870;53.084;18.206;2023-08-17T04:19:44;5.18;;;2.22;;
23394;SDS011;11870;53.084;18.206;2023-08-17T04:22:10;4.57;;;2.28;;
23394;SDS011;11870;53.084;18.206;2023-08-17T04:24:36;5.78;;;2.47;;
23394;SDS011;11870;53.084;18.206;2023-08-17T04:27:03;5.07;;;2.45;;
23394;SDS011;11870;53.084;18.206;2023-08-17T04:29:30;6.50;;;2.40;;
23394;SDS011;11870;53.084;18.206;2023-08-17T04:31:57;4.43;;;2.33;;
23394;SDS011;11870;53.084;18.206;2023-08-17T04:34:24;3.33;;;2.08;;
23394;SDS011;11870;53.084;18.206;2023-08-17T04:36:50;3.30;;;2.17;;
23394;SDS011;11870;53.084;18.206;2023-08-17T04:39:16;3.20;;;2.30;;
23394;SDS011;11870;53.084;18.206;2023-08-17T04:41:43;5.10;;;2.17;;
23394;SDS011;11870;53.084;18.206;2023-08-17T04:44:09;3.90;;;1.98;;
23394;SDS011;11870;53.084;18.206;2023-08-17T04:46:35;5.80;;;2.30;;
23394;SDS011;11870;53.084;18.206;2023-08-17T04:49:02;3.50;;;2.28;;
23394;SDS011;11870;53.084;18.206;2023-08-17T04:51:28;4.18;;;2.45;;
23394;SDS011;11870;53.084;18.206;2023-08-17T04:53:54;5.72;;;2.10;;
23394;SDS011;11870;53.084;18.206;2023-08-17T04:56:21;5.30;;;2.05;;
23394;SDS011;11870;53.084;18.206;2023-08-17T04:58:47;5.38;;;1.98;;
23394;SDS011;11870;53.084;18.206;2023-08-17T05:01:13;4.20;;;2.42;;
23394;SDS011;11870;53.084;18.206;2023-08-17T05:03:40;3.90;;;2.10;;
23394;SDS011;11870;53.084;18.206;2023-08-17T05:06:06;3.05;;;2.28;;
23394;SDS011;11870;53.084;18.206;2023-08-17T05:08:32;5.07;;;2.30;;
23394;SDS011;11870;53.084;18.206;2023-08-17T05:10:58;5.53;;;2.40;;
23394;SDS011;11870;53.084;18.206;2023-08-17T05:13:25;5.55;;;2.20;;
23394;SDS011;11870;53.084;18.206;2023-08-17T05:15:51;7.32;;;1.95;;
23394;SDS011;11870;53.084;18.206;2023-08-17T05:18:17;6.35;;;2.40;;
23394;SDS011;11870;53.084;18.206;2023-08-17T05:20:44;4.57;;;2.17;;
23394;SDS011;11870;53.084;18.206;2023-08-17T05:23:10;6.53;;;2.30;;
23394;SDS011;11870;53.084;18.206;2023-08-17T05:25:36;6.40;;;2.33;;
23394;SDS011;11870;53.084;18.206;2023-08-17T05:28:03;4.28;;;2.00;;
23394;SDS011;11870;53.084;18.206;2023-08-17T05:30:29;3.67;;;2.15;;
23394;SDS011;11870;53.084;18.206;2023-08-17T05:32:55;4.05;;;2.55;;
23394;SDS011;11870;53.084;18.206;2023-08-17T05:35:22;3.67;;;1.77;;
23394;SDS011;11870;53.084;18.206;2023-08-17T05:37:48;3.65;;;2.00;;
23394;SDS011;11870;53.084;18.206;2023-08-17T05:40:15;3.20;;;1.95;;
23394;SDS011;11870;53.084;18.206;2023-08-17T05:42:41;4.00;;;1.70;;
23394;SDS011;11870;53.084;18.206;2023-08-17T05:45:07;3.25;;;1.85;;
23394;SDS011;11870;53.084;18.206;2023-08-17T05:47:34;3.33;;;1.60;;
23394;SDS011;11870;53.084;18.206;2023-08-17T05:50:00;3.72;;;2.00;;
23394;SDS011;11870;53.084;18.206;2023-08-17T05:52:27;3.58;;;1.70;;
23394;SDS011;11870;53.084;18.206;2023-08-17T05:54:53;4.90;;;2.00;;
23394;SDS011;11870;53.084;18.206;2023-08-17T05:57:19;4.97;;;2.13;;
23394;SDS011;11870;53.084;18.206;2023-08-17T05:59:46;4.97;;;1.92;;
23394;SDS011;11870;53.084;18.206;2023-08-17T06:02:12;3.90;;;2.17;;
23394;SDS011;11870;53.084;18.206;2023-08-17T06:04:38;4.15;;;1.70;;
23394;SDS011;11870;53.084;18.206;2023-08-17T06:07:05;4.95;;;1.83;;
23394;SDS011;11870;53.084;18.206;2023-08-17T06:09:32;3.60;;;1.40;;
23394;SDS011;11870;53.084;18.206;2023-08-17T06:11:58;4.55;;;1.52;;
23394;SDS011;11870;53.084;18.206;2023-08-17T06:14:24;2.72;;;1.60;;
23394;SDS011;11870;53.084;18.206;2023-08-17T06:16:51;5.28;;;1.65;;
23394;SDS011;11870;53.084;18.206;2023-08-17T06:19:17;2.83;;;1.80;;
23394;SDS011;11870;53.084;18.206;2023-08-17T06:21:43;3.65;;;1.70;;
23394;SDS011;11870;53.084;18.206;2023-08-17T06:24:09;4.18;;;1.90;;
23394;SDS011;11870;53.084;18.206;2023-08-17T06:26:36;5.30;;;1.60;;
23394;SDS011;11870;53.084;18.206;2023-08-17T06:29:02;3.35;;;1.40;;
23394;SDS011;11870;53.084;18.206;2023-08-17T06:31:29;4.78;;;1.58;;
23394;SDS011;11870;53.084;18.206;2023-08-17T06:33:55;2.33;;;1.50;;
23394;SDS011;11870;53.084;18.206;2023-08-17T06:36:22;4.97;;;1.52;;
23394;SDS011;11870;53.084;18.206;2023-08-17T06:38:48;3.25;;;1.50;;
23394;SDS011;11870;53.084;18.206;2023-08-17T06:41:15;2.90;;;1.30;;
23394;SDS011;11870;53.084;18.206;2023-08-17T06:43:41;3.10;;;1.50;;
23394;SDS011;11870;53.084;18.206;2023-08-17T06:46:08;1.90;;;1.33;;
23394;SDS011;11870;53.084;18.206;2023-08-17T06:48:34;2.35;;;1.50;;
23394;SDS011;11870;53.084;18.206;2023-08-17T06:51:00;4.38;;;1.67;;
23394;SDS011;11870;53.084;18.206;2023-08-17T06:53:28;2.22;;;1.35;;
23394;SDS011;11870;53.084;18.206;2023-08-17T06:55:54;3.15;;;1.70;;
23394;SDS011;11870;53.084;18.206;2023-08-17T06:58:21;4.22;;;1.70;;
23394;SDS011;11870;53.084;18.206;2023-08-17T07:00:47;5.60;;;1.73;;
23394;SDS011;11870;53.084;18.206;2023-08-17T07:03:13;3.13;;;1.58;;
23394;SDS011;11870;53.084;18.206;2023-08-17T07:05:40;3.38;;;1.70;;
23394;SDS011;11870;53.084;18.206;2023-08-17T07:08:06;3.38;;;1.60;;
23394;SDS011;11870;53.084;18.206;2023-08-17T07:10:32;2.15;;;1.45;;
23394;SDS011;11870;53.084;18.206;2023-08-17T07:12:59;3.28;;;1.40;;
23394;SDS011;11870;53.084;18.206;2023-08-17T07:15:29;3.33;;;1.42;;
23394;SDS011;11870;53.084;18.206;2023-08-17T07:17:55;2.58;;;1.40;;
23394;SDS011;11870;53.084;18.206;2023-08-17T07:20:22;4.80;;;1.60;;
23394;SDS011;11870;53.084;18.206;2023-08-17T07:22:48;2.78;;;1.40;;
23394;SDS011;11870;53.084;18.206;2023-08-17T07:25:15;4.38;;;1.65;;
23394;SDS011;11870;53.084;18.206;2023-08-17T07:27:41;5.00;;;1.40;;
23394;SDS011;11870;53.084;18.206;2023-08-17T07:30:08;4.82;;;1.40;;
23394;SDS011;11870;53.084;18.206;2023-08-17T07:32:34;2.67;;;1.40;;
23394;SDS011;11870;53.084;18.206;2023-08-17T07:35:02;3.70;;;1.17;;
23394;SDS011;11870;53.084;18.206;2023-08-17T07:37:28;3.78;;;1.40;;
23394;SDS011;11870;53.084;18.206;2023-08-17T07:39:59;3.92;;;1.13;;
23394;SDS011;11870;53.084;18.206;2023-08-17T07:42:25;2.78;;;1.27;;
23394;SDS011;11870;53.084;18.206;2023-08-17T07:44:51;3.78;;;1.30;;
23394;SDS011;11870;53.084;18.206;2023-08-17T07:47:17;4.43;;;1.30;;
23394;SDS011;11870;53.084;18.206;2023-08-17T07:49:44;5.10;;;1.23;;
23394;SDS011;11870;53.084;18.206;2023-08-17T07:52:10;3.03;;;1.10;;
23394;SDS011;11870;53.084;18.206;2023-08-17T07:54:37;4.13;;;1.33;;
23394;SDS011;11870;53.084;18.206;2023-08-17T07:57:03;4.50;;;1.80;;
23394;SDS011;11870;53.084;18.206;2023-08-17T07:59:29;1.63;;;1.10;;
23394;SDS011;11870;53.084;18.206;2023-08-17T08:01:56;3.40;;;1.45;;
23394;SDS011;11870;53.084;18.206;2023-08-17T08:04:22;3.40;;;1.50;;
23394;SDS011;11870;53.084;18.206;2023-08-17T08:06:48;4.28;;;1.42;;
23394;SDS011;11870;53.084;18.206;2023-08-17T08:09:15;3.88;;;1.60;;
23394;SDS011;11870;53.084;18.206;2023-08-17T08:11:41;3.90;;;1.50;;
23394;SDS011;11870;53.084;18.206;2023-08-17T08:14:07;3.58;;;1.50;;
23394;SDS011;11870;53.084;18.206;2023-08-17T08:16:34;2.67;;;1.25;;
23394;SDS011;11870;53.084;18.206;2023-08-17T08:19:00;3.38;;;1.65;;
23394;SDS011;11870;53.084;18.206;2023-08-17T08:21:26;3.15;;;1.38;;
23394;SDS011;11870;53.084;18.206;2023-08-17T08:23:53;2.92;;;1.33;;
23394;SDS011;11870;53.084;18.206;2023-08-17T08:26:19;8.07;;;1.55;;
23394;SDS011;11870;53.084;18.206;2023-08-17T08:28:48;2.28;;;1.50;;
23394;SDS011;11870;53.084;18.206;2023-08-17T08:31:14;6.47;;;1.88;;
23394;SDS011;11870;53.084;18.206;2023-08-17T08:33:40;2.55;;;1.48;;
23394;SDS011;11870;53.084;18.206;2023-08-17T08:36:07;3.22;;;1.60;;
23394;SDS011;11870;53.084;18.206;2023-08-17T08:38:33;6.00;;;1.55;;
23394;SDS011;11870;53.084;18.206;2023-08-17T08:41:01;3.05;;;1.70;;
23394;SDS011;11870;53.084;18.206;2023-08-17T08:43:28;4.57;;;1.40;;
23394;SDS011;11870;53.084;18.206;2023-08-17T08:45:54;3.30;;;1.50;;
23394;SDS011;11870;53.084;18.206;2023-08-17T08:48:22;3.35;;;1.65;;
23394;SDS011;11870;53.084;18.206;2023-08-17T08:50:49;1.98;;;1.23;;
23394;SDS011;11870;53.084;18.206;2023-08-17T08:53:19;4.07;;;1.65;;
23394;SDS011;11870;53.084;18.206;2023-08-17T08:55:57;5.15;;;1.30;;
23394;SDS011;11870;53.084;18.206;2023-08-17T08:58:25;2.83;;;1.40;;
23394;SDS011;11870;53.084;18.206;2023-08-17T09:00:52;3.80;;;1.63;;
23394;SDS011;11870;53.084;18.206;2023-08-17T09:03:20;5.45;;;1.48;;
23394;SDS011;11870;53.084;18.206;2023-08-17T09:05:47;4.07;;;1.60;;
23394;SDS011;11870;53.084;18.206;2023-08-17T09:08:14;2.97;;;1.40;;
23394;SDS011;11870;53.084;18.206;2023-08-17T09:10:41;4.80;;;1.77;;
23394;SDS011;11870;53.084;18.206;2023-08-17T09:13:08;2.95;;;1.52;;
23394;SDS011;11870;53.084;18.206;2023-08-17T09:15:34;2.90;;;1.55;;
23394;SDS011;11870;53.084;18.206;2023-08-17T09:18:00;2.45;;;1.45;;
23394;SDS011;11870;53.084;18.206;2023-08-17T09:20:37;2.30;;;1.60;;
23394;SDS011;11870;53.084;18.206;2023-08-17T09:23:14;3.05;;;1.70;;
23394;SDS011;11870;53.084;18.206;2023-08-17T09:25:43;2.92;;;1.48;;
23394;SDS011;11870;53.084;18.206;2023-08-17T09:28:11;3.58;;;1.88;;
23394;SDS011;11870;53.084;18.206;2023-08-17T09:33:31;6.03;;;1.70;;
23394;SDS011;11870;53.084;18.206;2023-08-17T09:35:58;2.40;;;1.60;;
23394;SDS011;11870;53.084;18.206;2023-08-17T09:38:25;2.58;;;1.73;;
23394;SDS011;11870;53.084;18.206;2023-08-17T09:40:52;3.17;;;1.98;;
23394;SDS011;11870;53.084;18.206;2023-08-17T09:43:19;3.25;;;1.60;;
23394;SDS011;11870;53.084;18.206;2023-08-17T09:45:48;5.57;;;1.83;;
23394;SDS011;11870;53.084;18.206;2023-08-17T09:48:18;5.70;;;2.10;;
23394;SDS011;11870;53.084;18.206;2023-08-17T09:50:45;3.88;;;1.83;;
23394;SDS011;11870;53.084;18.206;2023-08-17T09:53:15;2.58;;;2.08;;
23394;SDS011;11870;53.084;18.206;2023-08-17T09:55:42;4.07;;;1.98;;
23394;SDS011;11870;53.084;18.206;2023-08-17T09:58:09;5.60;;;2.05;;
23394;SDS011;11870;53.084;18.206;2023-08-17T10:00:42;5.53;;;2.20;;
23394;SDS011;11870;53.084;18.206;2023-08-17T10:03:09;3.42;;;2.00;;
23394;SDS011;11870;53.084;18.206;2023-08-17T10:05:38;3.60;;;1.70;;
23394;SDS011;11870;53.084;18.206;2023-08-17T10:08:04;3.17;;;2.20;;
23394;SDS011;11870;53.084;18.206;2023-08-17T10:10:33;4.45;;;2.00;;
23394;SDS011;11870;53.084;18.206;2023-08-17T10:13:09;3.55;;;1.75;;
23394;SDS011;11870;53.084;18.206;2023-08-17T10:15:37;5.78;;;2.25;;
23394;SDS011;11870;53.084;18.206;2023-08-17T10:18:08;6.03;;;2.20;;
23394;SDS011;11870;53.084;18.206;2023-08-17T10:20:35;5.22;;;2.10;;
23394;SDS011;11870;53.084;18.206;2023-08-17T10:23:14;3.25;;;1.90;;
23394;SDS011;11870;53.084;18.206;2023-08-17T10:25:41;5.63;;;2.03;;
23394;SDS011;11870;53.084;18.206;2023-08-17T10:28:09;5.63;;;2.22;;
23394;SDS011;11870;53.084;18.206;2023-08-17T10:30:36;4.20;;;2.20;;
23394;SDS011;11870;53.084;18.206;2023-08-17T10:33:04;3.13;;;1.95;;
23394;SDS011;11870;53.084;18.206;2023-08-17T10:35:32;3.97;;;1.90;;
23394;SDS011;11870;53.084;18.206;2023-08-17T10:37:59;3.25;;;1.75;;
23394;SDS011;11870;53.084;18.206;2023-08-17T10:40:27;3.45;;;2.28;;
23394;SDS011;11870;53.084;18.206;2023-08-17T10:42:55;4.70;;;1.98;;
23394;SDS011;11870;53.084;18.206;2023-08-17T10:48:41;3.30;;;2.53;;
23394;SDS011;11870;53.084;18.206;2023-08-17T10:50:44;7.03;;;2.70;;
23394;SDS011;11870;53.084;18.206;2023-08-17T10:53:33;7.25;;;3.00;;
23394;SDS011;11870;53.084;18.206;2023-08-17T10:56:00;6.57;;;2.63;;
23394;SDS011;11870;53.084;18.206;2023-08-17T10:58:30;5.95;;;2.90;;
23394;SDS011;11870;53.084;18.206;2023-08-17T11:00:58;7.55;;;2.88;;
23394;SDS011;11870;53.084;18.206;2023-08-17T11:03:25;5.57;;;2.50;;
23394;SDS011;11870;53.084;18.206;2023-08-17T11:05:52;8.55;;;2.83;;
23394;SDS011;11870;53.084;18.206;2023-08-17T11:08:39;6.57;;;2.63;;
23394;SDS011;11870;53.084;18.206;2023-08-17T11:11:12;4.70;;;2.50;;
23394;SDS011;11870;53.084;18.206;2023-08-17T11:13:40;4.93;;;2.35;;
23394;SDS011;11870;53.084;18.206;2023-08-17T11:16:08;7.47;;;2.47;;
23394;SDS011;11870;53.084;18.206;2023-08-17T11:18:34;7.70;;;2.90;;
23394;SDS011;11870;53.084;18.206;2023-08-17T11:21:02;6.45;;;2.97;;
23394;SDS011;11870;53.084;18.206;2023-08-17T11:23:32;3.97;;;2.78;;
23394;SDS011;11870;53.084;18.206;2023-08-17T11:25:59;6.97;;;3.10;;
23394;SDS011;11870;53.084;18.206;2023-08-17T11:28:25;5.28;;;3.47;;
23394;SDS011;11870;53.084;18.206;2023-08-17T11:31:08;6.00;;;3.50;;
23394;SDS011;11870;53.084;18.206;2023-08-17T11:33:35;7.53;;;2.92;;
23394;SDS011;11870;53.084;18.206;2023-08-17T11:36:03;6.95;;;3.15;;
23394;SDS011;11870;53.084;18.206;2023-08-17T11:38:35;10.55;;;3.42;;
23394;SDS011;11870;53.084;18.206;2023-08-17T11:41:02;8.65;;;2.95;;
23394;SDS011;11870;53.084;18.206;2023-08-17T11:43:29;6.40;;;2.97;;
23394;SDS011;11870;53.084;18.206;2023-08-17T11:45:56;5.13;;;3.00;;
23394;SDS011;11870;53.084;18.206;2023-08-17T11:48:23;4.18;;;2.80;;
23394;SDS011;11870;53.084;18.206;2023-08-17T11:50:49;6.32;;;3.20;;
23394;SDS011;11870;53.084;18.206;2023-08-17T11:53:16;7.10;;;3.03;;
23394;SDS011;11870;53.084;18.206;2023-08-17T11:55:43;4.00;;;2.90;;
23394;SDS011;11870;53.084;18.206;2023-08-17T11:58:10;4.85;;;2.90;;
23394;SDS011;11870;53.084;18.206;2023-08-17T12:00:39;7.93;;;3.30;;
23394;SDS011;11870;53.084;18.206;2023-08-17T12:03:07;4.97;;;3.30;;
23394;SDS011;11870;53.084;18.206;2023-08-17T12:05:34;4.18;;;2.90;;
23394;SDS011;11870;53.084;18.206;2023-08-17T12:08:07;5.10;;;3.10;;
23394;SDS011;11870;53.084;18.206;2023-08-17T12:10:33;5.53;;;3.20;;
23394;SDS011;11870;53.084;18.206;2023-08-17T12:13:00;8.35;;;3.38;;
23394;SDS011;11870;53.084;18.206;2023-08-17T12:15:30;7.22;;;3.58;;
23394;SDS011;11870;53.084;18.206;2023-08-17T12:17:58;5.78;;;2.80;;
23394;SDS011;11870;53.084;18.206;2023-08-17T12:20:25;5.57;;;3.08;;
23394;SDS011;11870;53.084;18.206;2023-08-17T12:22:51;5.13;;;3.15;;
23394;SDS011;11870;53.084;18.206;2023-08-17T12:25:20;7.72;;;3.42;;
23394;SDS011;11870;53.084;18.206;2023-08-17T12:27:48;6.28;;;3.55;;
23394;SDS011;11870;53.084;18.206;2023-08-17T12:30:23;8.32;;;4.55;;
23394;SDS011;11870;53.084;18.206;2023-08-17T12:32:50;6.80;;;4.28;;
23394;SDS011;11870;53.084;18.206;2023-08-17T12:35:16;8.63;;;4.22;;
23394;SDS011;11870;53.084;18.206;2023-08-17T12:37:43;7.60;;;4.30;;
23394;SDS011;11870;53.084;18.206;2023-08-17T12:40:09;6.22;;;4.45;;
23394;SDS011;11870;53.084;18.206;2023-08-17T12:42:36;8.63;;;4.47;;
23394;SDS011;11870;53.084;18.206;2023-08-17T12:45:02;8.02;;;4.45;;
23394;SDS011;11870;53.084;18.206;2023-08-17T12:47:28;7.72;;;5.18;;
23394;SDS011;11870;53.084;18.206;2023-08-17T12:49:55;7.32;;;4.70;;
23394;SDS011;11870;53.084;18.206;2023-08-17T12:52:21;6.93;;;4.63;;
23394;SDS011;11870;53.084;18.206;2023-08-17T12:54:47;11.15;;;4.78;;
23394;SDS011;11870;53.084;18.206;2023-08-17T12:57:14;9.00;;;4.32;;
23394;SDS011;11870;53.084;18.206;2023-08-17T12:59:40;8.75;;;4.57;;
23394;SDS011;11870;53.084;18.206;2023-08-17T13:02:07;6.65;;;4.10;;
23394;SDS011;11870;53.084;18.206;2023-08-17T13:04:33;9.07;;;4.32;;
23394;SDS011;11870;53.084;18.206;2023-08-17T13:06:59;6.05;;;4.50;;
23394;SDS011;11870;53.084;18.206;2023-08-17T13:09:25;6.45;;;3.80;;
23394;SDS011;11870;53.084;18.206;2023-08-17T13:11:52;6.78;;;4.03;;
23394;SDS011;11870;53.084;18.206;2023-08-17T13:14:18;6.93;;;4.80;;
23394;SDS011;11870;53.084;18.206;2023-08-17T13:16:44;6.97;;;4.50;;
23394;SDS011;11870;53.084;18.206;2023-08-17T13:19:11;10.60;;;4.40;;
23394;SDS011;11870;53.084;18.206;2023-08-17T13:21:37;8.50;;;4.57;;
23394;SDS011;11870;53.084;18.206;2023-08-17T13:24:03;10.15;;;4.70;;
23394;SDS011;11870;53.084;18.206;2023-08-17T13:26:30;6.90;;;4.35;;
23394;SDS011;11870;53.084;18.206;2023-08-17T13:28:56;8.68;;;4.47;;
23394;SDS011;11870;53.084;18.206;2023-08-17T13:31:22;4.97;;;4.05;;
23394;SDS011;11870;53.084;18.206;2023-08-17T13:33:49;8.30;;;4.35;;
23394;SDS011;11870;53.084;18.206;2023-08-17T13:36:15;9.70;;;4.28;;
23394;SDS011;11870;53.084;18.206;2023-08-17T13:38:41;5.70;;;4.13;;
23394;SDS011;11870;53.084;18.206;2023-08-17T13:41:08;6.35;;;4.28;;
23394;SDS011;11870;53.084;18.206;2023-08-17T13:43:34;5.78;;;4.03;;
23394;SDS011;11870;53.084;18.206;2023-08-17T13:46:01;8.30;;;4.30;;
23394;SDS011;11870;53.084;18.206;2023-08-17T13:48:26;7.78;;;4.40;;
23394;SDS011;11870;53.084;18.206;2023-08-17T13:50:53;7.07;;;4.20;;
23394;SDS011;11870;53.084;18.206;2023-08-17T13:53:19;8.75;;;4.20;;
23394;SDS011;11870;53.084;18.206;2023-08-17T13:55:45;9.27;;;4.32;;
23394;SDS011;11870;53.084;18.206;2023-08-17T13:58:12;5.40;;;3.38;;
23394;SDS011;11870;53.084;18.206;2023-08-17T14:00:38;8.70;;;3.70;;
23394;SDS011;11870;53.084;18.206;2023-08-17T14:03:04;7.68;;;3.80;;
23394;SDS011;11870;53.084;18.206;2023-08-17T14:05:32;4.78;;;3.45;;
23394;SDS011;11870;53.084;18.206;2023-08-17T14:07:58;7.13;;;3.67;;
23394;SDS011;11870;53.084;18.206;2023-08-17T14:10:25;5.13;;;3.40;;
23394;SDS011;11870;53.084;18.206;2023-08-17T14:12:51;5.45;;;3.95;;
23394;SDS011;11870;53.084;18.206;2023-08-17T14:15:17;5.97;;;3.90;;
23394;SDS011;11870;53.084;18.206;2023-08-17T14:17:43;6.90;;;3.60;;
23394;SDS011;11870;53.084;18.206;2023-08-17T14:20:10;5.38;;;3.50;;
23394;SDS011;11870;53.084;18.206;2023-08-17T14:22:36;8.57;;;3.55;;
23394;SDS011;11870;53.084;18.206;2023-08-17T14:25:03;9.77;;;3.65;;
23394;SDS011;11870;53.084;18.206;2023-08-17T14:27:29;7.53;;;3.33;;
23394;SDS011;11870;53.084;18.206;2023-08-17T14:29:56;5.47;;;3.40;;
23394;SDS011;11870;53.084;18.206;2023-08-17T14:32:26;5.20;;;3.38;;
23394;SDS011;11870;53.084;18.206;2023-08-17T14:34:53;4.63;;;3.17;;
23394;SDS011;11870;53.084;18.206;2023-08-17T14:37:19;4.32;;;3.30;;
23394;SDS011;11870;53.084;18.206;2023-08-17T14:39:46;6.28;;;3.42;;
23394;SDS011;11870;53.084;18.206;2023-08-17T14:42:12;7.40;;;3.40;;